Time;durP1;ratioP1;P1;durP2;ratioP2;P2;SDS_P1;SDS_P2;PMS_P1;PMS_P2;Temp;Humidity;BMP_temperature;BMP_pressure;BME280_temperature;BME280_humidity;BME280_pressure;Samples;Min_cycle;Max_cycle;Signal;HPM_P1;HPM_P2
2021/12/22 00:00:20;;;;;;;35.50;15.93;;;;;;;;;;4451823;32;20263;-57
2021/12/22 00:02:46;;;;;;;34.17;16.47;;;;;;;;;;4454508;32;20227;-56
2021/12/22 00:05:25;;;;;;;37.80;16.60;;;;;;;;;;4462217;32;20304;-55
2021/12/22 00:07:51;;;;;;;38.23;17.97;;;;;;;;;;4460322;32;20635;-57
2021/12/22 00:10:18;;;;;;;50.90;22.00;;;;;;;;;;4449873;32;20261;-56
2021/12/22 00:12:44;;;;;;;52.03;25.70;;;;;;;;;;4456142;32;20755;-56
2021/12/22 00:15:10;;;;;;;60.67;28.33;;;;;;;;;;4456648;32;20597;-57
2021/12/22 00:17:36;;;;;;;94.97;45.27;;;;;;;;;;4457772;32;20283;-56
2021/12/22 00:20:02;;;;;;;131.70;57.20;;;;;;;;;;4456034;32;20256;-57
2021/12/22 00:22:28;;;;;;;119.37;55.57;;;;;;;;;;4464936;32;20243;-57
2021/12/22 00:24:53;;;;;;;109.50;51.37;;;;;;;;;;4464921;32;20290;-57
2021/12/22 00:27:19;;;;;;;150.63;62.53;;;;;;;;;;4464721;32;20530;-58
2021/12/22 00:29:48;;;;;;;114.33;54.43;;;;;;;;;;4450861;32;20493;-58
2021/12/22 00:32:15;;;;;;;67.43;31.13;;;;;;;;;;4454298;32;20207;-58
2021/12/22 00:34:52;;;;;;;68.40;33.00;;;;;;;;;;4456210;32;20208;-58
2021/12/22 00:37:20;;;;;;;83.90;32.97;;;;;;;;;;4464805;32;20230;-58
2021/12/22 00:39:47;;;;;;;68.47;30.33;;;;;;;;;;4450387;32;20273;-58
2021/12/22 00:42:13;;;;;;;43.63;21.83;;;;;;;;;;4453940;32;20324;-57
2021/12/22 00:44:41;;;;;;;45.60;23.70;;;;;;;;;;4450484;32;20217;-56
2021/12/22 00:47:07;;;;;;;58.40;28.80;;;;;;;;;;4452744;32;20250;-57
2021/12/22 00:49:34;;;;;;;51.40;26.57;;;;;;;;;;4451127;32;20302;-57
2021/12/22 00:51:59;;;;;;;39.77;19.63;;;;;;;;;;4452311;32;20685;-58
2021/12/22 00:54:25;;;;;;;44.90;19.00;;;;;;;;;;4452548;32;20300;-58
2021/12/22 00:56:50;;;;;;;36.80;15.53;;;;;;;;;;4451066;32;20794;-56
2021/12/22 00:59:18;;;;;;;25.33;13.53;;;;;;;;;;4455499;32;20306;-57
2021/12/22 01:01:45;;;;;;;25.97;14.40;;;;;;;;;;4464256;32;20299;-57
2021/12/22 01:04:11;;;;;;;30.10;13.73;;;;;;;;;;4452915;32;20408;-57
2021/12/22 01:06:36;;;;;;;16.80;10.50;;;;;;;;;;4449509;32;20273;-57
2021/12/22 01:09:04;;;;;;;26.97;12.57;;;;;;;;;;4464318;32;20370;-58
2021/12/22 01:11:30;;;;;;;25.57;9.90;;;;;;;;;;4463576;32;20904;-57
2021/12/22 01:13:56;;;;;;;18.90;8.80;;;;;;;;;;4464405;32;20375;-57
2021/12/22 01:16:21;;;;;;;19.43;8.13;;;;;;;;;;4463824;32;20254;-58
2021/12/22 01:18:47;;;;;;;14.63;8.67;;;;;;;;;;4447385;32;20323;-57
2021/12/22 01:22:03;;;;;;;16.63;8.10;;;;;;;;;;4463006;32;20231;-57
2021/12/22 01:24:12;;;;;;;17.10;8.60;;;;;;;;;;4450353;32;20378;-57
2021/12/22 01:26:45;;;;;;;15.90;8.57;;;;;;;;;;4449318;32;20240;-58
2021/12/22 01:29:14;;;;;;;13.17;7.77;;;;;;;;;;4450372;32;20303;-58
2021/12/22 01:31:41;;;;;;;17.20;8.53;;;;;;;;;;4459899;32;20338;-58
2021/12/22 01:34:07;;;;;;;20.33;10.50;;;;;;;;;;4461696;32;20239;-57
2021/12/22 01:36:33;;;;;;;21.27;12.73;;;;;;;;;;4463797;32;20255;-57
2021/12/22 01:38:59;;;;;;;18.67;9.47;;;;;;;;;;4460339;32;20313;-58
2021/12/22 01:41:25;;;;;;;23.23;12.47;;;;;;;;;;4447317;32;20269;-57
2021/12/22 01:43:50;;;;;;;34.00;18.07;;;;;;;;;;4448431;32;20350;-58
2021/12/22 01:49:09;;;;;;;46.50;21.97;;;;;;;;;;4447925;32;20375;-56
2021/12/22 01:49:50;;;;;;;53.17;23.73;;;;;;;;;;4447733;32;20866;-58
2021/12/22 01:52:17;;;;;;;71.00;40.30;;;;;;;;;;4447137;32;20266;-57
2021/12/22 01:54:49;;;;;;;69.03;32.20;;;;;;;;;;4447585;32;20282;-57
2021/12/22 01:57:17;;;;;;;70.20;30.40;;;;;;;;;;4446817;32;20224;-57
2021/12/22 01:59:45;;;;;;;59.43;28.50;;;;;;;;;;4453976;32;20710;-57
2021/12/22 02:02:12;;;;;;;69.20;30.77;;;;;;;;;;4463963;32;20440;-58
2021/12/22 02:04:40;;;;;;;72.90;33.27;;;;;;;;;;4462471;32;20256;-58
2021/12/22 02:07:06;;;;;;;80.53;35.43;;;;;;;;;;4461728;32;20592;-55
2021/12/22 02:12:16;;;;;;;109.40;45.80;;;;;;;;;;4462868;32;20537;-56
2021/12/22 02:14:42;;;;;;;93.00;40.97;;;;;;;;;;4454935;32;20292;-57
2021/12/22 02:17:09;;;;;;;141.97;55.70;;;;;;;;;;4447330;32;20637;-56
2021/12/22 02:19:56;;;;;;;138.20;53.50;;;;;;;;;;4450350;32;20228;-56
2021/12/22 02:22:23;;;;;;;94.17;41.87;;;;;;;;;;4463329;32;20235;-56
2021/12/22 02:24:54;;;;;;;65.17;29.47;;;;;;;;;;4453930;32;20618;-56
2021/12/22 02:27:55;;;;;;;49.60;24.47;;;;;;;;;;4447702;32;20339;-56
2021/12/22 02:30:24;;;;;;;51.57;24.83;;;;;;;;;;4456741;32;20244;-56
2021/12/22 02:35:39;;;;;;;71.53;31.63;;;;;;;;;;4461765;32;20321;-56
2021/12/22 02:38:12;;;;;;;61.90;29.73;;;;;;;;;;4449500;32;20303;-56
2021/12/22 02:40:38;;;;;;;66.80;31.23;;;;;;;;;;4460740;32;20698;-56
2021/12/22 02:43:05;;;;;;;63.30;26.37;;;;;;;;;;4462882;32;20211;-57
2021/12/22 02:45:33;;;;;;;49.30;26.40;;;;;;;;;;4462509;32;20337;-57
2021/12/22 02:47:59;;;;;;;69.47;34.83;;;;;;;;;;4458391;32;20311;-56
2021/12/22 02:50:25;;;;;;;57.67;28.00;;;;;;;;;;4459765;32;20387;-56
2021/12/22 02:55:16;;;;;;;42.13;21.97;;;;;;;;;;4445492;32;20314;-57
2021/12/22 02:57:46;;;;;;;60.97;23.67;;;;;;;;;;4447565;32;20292;-57
2021/12/22 03:03:02;;;;;;;45.43;22.20;;;;;;;;;;4460524;32;20250;-55
2021/12/22 03:05:28;;;;;;;31.27;15.93;;;;;;;;;;4460091;32;20232;-56
2021/12/22 03:07:55;;;;;;;36.13;18.57;;;;;;;;;;4460036;32;20228;-56
2021/12/22 03:10:21;;;;;;;40.60;16.37;;;;;;;;;;4459077;32;20310;-56
2021/12/22 03:12:52;;;;;;;29.87;15.00;;;;;;;;;;4460781;32;20268;-58
2021/12/22 03:15:19;;;;;;;36.80;14.33;;;;;;;;;;4448349;32;20220;-58
2021/12/22 03:17:45;;;;;;;31.40;14.83;;;;;;;;;;4454890;32;20287;-56
2021/12/22 03:20:13;;;;;;;37.40;15.77;;;;;;;;;;4457646;32;20274;-56
2021/12/22 03:22:38;;;;;;;23.77;13.67;;;;;;;;;;4461985;32;20203;-57
2021/12/22 03:25:13;;;;;;;33.20;15.37;;;;;;;;;;4462262;32;20242;-56
2021/12/22 03:27:39;;;;;;;28.40;12.87;;;;;;;;;;4461622;32;20242;-57
2021/12/22 03:30:06;;;;;;;27.77;12.10;;;;;;;;;;4457103;32;20429;-56
2021/12/22 03:32:32;;;;;;;28.63;13.00;;;;;;;;;;4462576;32;20223;-58
2021/12/22 03:34:57;;;;;;;32.80;14.90;;;;;;;;;;4449975;32;20248;-56
2021/12/22 03:37:23;;;;;;;32.93;16.03;;;;;;;;;;4445741;32;20258;-59
2021/12/22 03:39:48;;;;;;;38.73;18.23;;;;;;;;;;4454632;32;20318;-56
2021/12/22 03:42:14;;;;;;;32.27;16.40;;;;;;;;;;4462404;32;20565;-56
2021/12/22 03:44:40;;;;;;;47.27;25.13;;;;;;;;;;4455920;32;20378;-57
2021/12/22 03:47:06;;;;;;;34.97;18.33;;;;;;;;;;4450314;32;20197;-57
2021/12/22 03:49:32;;;;;;;42.77;20.97;;;;;;;;;;4462344;32;20299;-57
2021/12/22 03:51:58;;;;;;;41.07;19.53;;;;;;;;;;4465462;32;20554;-57
2021/12/22 03:54:23;;;;;;;33.73;17.10;;;;;;;;;;4464546;32;20252;-56
2021/12/22 03:56:50;;;;;;;27.37;15.63;;;;;;;;;;4464582;32;20236;-56
2021/12/22 03:59:16;;;;;;;37.13;16.13;;;;;;;;;;4458430;32;20240;-57
2021/12/22 04:01:41;;;;;;;43.47;17.93;;;;;;;;;;4463405;32;20247;-57
2021/12/22 04:04:13;;;;;;;23.67;12.93;;;;;;;;;;4459305;32;20334;-56
2021/12/22 04:06:39;;;;;;;31.90;14.67;;;;;;;;;;4465221;32;20580;-56
2021/12/22 04:09:05;;;;;;;35.93;17.20;;;;;;;;;;4458970;32;20387;-57
2021/12/22 04:11:30;;;;;;;46.10;18.67;;;;;;;;;;4464583;32;20439;-56
2021/12/22 04:13:56;;;;;;;30.00;16.57;;;;;;;;;;4459544;32;20295;-57
2021/12/22 04:16:22;;;;;;;26.10;13.23;;;;;;;;;;4464037;32;20537;-57
2021/12/22 04:18:47;;;;;;;26.93;16.37;;;;;;;;;;4464516;32;20303;-57
2021/12/22 04:21:13;;;;;;;36.03;16.47;;;;;;;;;;4463671;32;20240;-56
2021/12/22 04:23:38;;;;;;;50.23;20.70;;;;;;;;;;4458866;32;20421;-56
2021/12/22 04:26:04;;;;;;;51.27;21.83;;;;;;;;;;4465346;32;20228;-55
2021/12/22 04:28:30;;;;;;;29.37;14.33;;;;;;;;;;4464637;32;20383;-55
2021/12/22 04:30:55;;;;;;;17.77;11.80;;;;;;;;;;4464695;32;20302;-56
2021/12/22 04:33:21;;;;;;;24.97;12.33;;;;;;;;;;4458283;32;20232;-55
2021/12/22 04:35:51;;;;;;;29.03;14.80;;;;;;;;;;4449371;32;20264;-56
2021/12/22 04:38:17;;;;;;;31.53;15.33;;;;;;;;;;4453923;32;20644;-56
2021/12/22 04:40:43;;;;;;;35.30;17.00;;;;;;;;;;4464529;32;20261;-56
2021/12/22 04:43:09;;;;;;;24.50;14.03;;;;;;;;;;4459259;32;20213;-55
2021/12/22 04:45:35;;;;;;;21.73;10.73;;;;;;;;;;4444893;32;20549;-56
2021/12/22 04:48:01;;;;;;;18.83;11.13;;;;;;;;;;4446895;32;20311;-55
2021/12/22 04:50:27;;;;;;;22.20;11.80;;;;;;;;;;4452996;32;20270;-55
2021/12/22 04:52:59;;;;;;;24.57;11.37;;;;;;;;;;4448289;32;20322;-56
2021/12/22 04:55:26;;;;;;;23.97;11.83;;;;;;;;;;4450173;32;20621;-56
2021/12/22 04:57:56;;;;;;;29.03;11.57;;;;;;;;;;4453879;32;20228;-55
2021/12/22 05:00:24;;;;;;;24.40;14.13;;;;;;;;;;4459125;32;20253;-56
2021/12/22 05:02:50;;;;;;;46.43;25.53;;;;;;;;;;4463635;32;20309;-56
2021/12/22 05:05:16;;;;;;;73.47;35.87;;;;;;;;;;4464361;32;20227;-57
2021/12/22 05:07:43;;;;;;;55.67;28.80;;;;;;;;;;4450073;32;20312;-58
2021/12/22 05:10:09;;;;;;;50.20;25.83;;;;;;;;;;4457673;32;20223;-57
2021/12/22 05:12:35;;;;;;;34.27;20.47;;;;;;;;;;4453657;32;20350;-57
2021/12/22 05:15:02;;;;;;;33.67;18.73;;;;;;;;;;4456003;32;20585;-57
2021/12/22 05:17:50;;;;;;;28.20;12.57;;;;;;;;;;4448200;32;20212;-57
2021/12/22 05:20:16;;;;;;;20.57;10.07;;;;;;;;;;4458240;32;20263;-57
2021/12/22 05:22:42;;;;;;;29.47;13.17;;;;;;;;;;4453115;32;20259;-57
2021/12/22 05:25:10;;;;;;;25.13;14.93;;;;;;;;;;4447065;32;20232;-58
2021/12/22 05:27:36;;;;;;;31.20;16.30;;;;;;;;;;4457381;32;20225;-58
2021/12/22 05:30:05;;;;;;;35.50;18.93;;;;;;;;;;4463822;32;20270;-58
2021/12/22 05:32:32;;;;;;;44.73;22.90;;;;;;;;;;4455348;32;20342;-58
2021/12/22 05:35:04;;;;;;;61.37;28.63;;;;;;;;;;4448394;32;20259;-56
2021/12/22 05:37:29;;;;;;;94.77;41.87;;;;;;;;;;4456517;32;20242;-57
2021/12/22 05:39:58;;;;;;;86.63;41.73;;;;;;;;;;4463879;32;20239;-57
2021/12/22 05:42:25;;;;;;;90.60;43.07;;;;;;;;;;4463410;32;20239;-57
2021/12/22 05:44:50;;;;;;;78.87;40.00;;;;;;;;;;4463427;32;20351;-57
2021/12/22 05:47:16;;;;;;;72.37;35.43;;;;;;;;;;4456605;32;20664;-57
2021/12/22 05:49:43;;;;;;;56.37;26.93;;;;;;;;;;4453372;32;20349;-58
2021/12/22 05:52:09;;;;;;;60.90;28.03;;;;;;;;;;4462454;32;20272;-58
2021/12/22 05:54:34;;;;;;;38.60;21.60;;;;;;;;;;4455198;32;20292;-57
2021/12/22 05:57:00;;;;;;;47.63;22.80;;;;;;;;;;4447087;32;20327;-57
2021/12/22 05:59:25;;;;;;;28.60;16.83;;;;;;;;;;4452047;32;20430;-56
2021/12/22 06:01:51;;;;;;;49.80;22.60;;;;;;;;;;4457949;32;20697;-55
2021/12/22 06:04:16;;;;;;;48.90;20.47;;;;;;;;;;4460814;32;20653;-57
2021/12/22 06:06:43;;;;;;;41.27;18.90;;;;;;;;;;4458957;32;20213;-57
2021/12/22 06:09:09;;;;;;;27.23;16.10;;;;;;;;;;4450754;32;20321;-56
2021/12/22 06:11:34;;;;;;;37.10;18.00;;;;;;;;;;4460578;32;20224;-57
2021/12/22 06:14:00;;;;;;;33.13;18.30;;;;;;;;;;4449172;32;20307;-57
2021/12/22 06:16:26;;;;;;;38.70;20.07;;;;;;;;;;4457259;32;20736;-57
2021/12/22 06:18:57;;;;;;;41.80;21.57;;;;;;;;;;4448104;32;20591;-56
2021/12/22 06:21:23;;;;;;;53.73;24.00;;;;;;;;;;4461747;32;20425;-58
2021/12/22 06:23:49;;;;;;;36.53;18.13;;;;;;;;;;4449747;32;20378;-57
2021/12/22 06:26:14;;;;;;;38.63;19.17;;;;;;;;;;4455932;32;20654;-56
2021/12/22 06:28:40;;;;;;;44.17;20.77;;;;;;;;;;4448188;32;20323;-54
2021/12/22 06:31:06;;;;;;;47.33;21.07;;;;;;;;;;4462411;32;20353;-58
2021/12/22 06:33:32;;;;;;;47.97;21.93;;;;;;;;;;4447605;32;20212;-57
2021/12/22 06:35:58;;;;;;;44.07;24.07;;;;;;;;;;4461363;32;20667;-56
2021/12/22 06:38:24;;;;;;;40.50;25.20;;;;;;;;;;4462990;32;20219;-58
2021/12/22 06:40:50;;;;;;;57.63;30.97;;;;;;;;;;4458511;32;20699;-57
2021/12/22 06:43:16;;;;;;;57.50;29.13;;;;;;;;;;4450259;32;20208;-57
2021/12/22 06:45:42;;;;;;;44.37;26.27;;;;;;;;;;4449016;32;20700;-57
2021/12/22 06:48:08;;;;;;;72.27;33.00;;;;;;;;;;4458924;32;20393;-57
2021/12/22 06:50:33;;;;;;;96.37;41.93;;;;;;;;;;4463151;32;20244;-56
2021/12/22 06:52:59;;;;;;;93.73;49.43;;;;;;;;;;4460056;32;20232;-56
2021/12/22 06:55:25;;;;;;;121.83;54.13;;;;;;;;;;4462831;32;20236;-56
2021/12/22 06:57:51;;;;;;;122.47;54.27;;;;;;;;;;4451064;32;20288;-56
2021/12/22 07:00:16;;;;;;;109.13;53.23;;;;;;;;;;4455703;32;20215;-58
2021/12/22 07:02:42;;;;;;;102.50;51.13;;;;;;;;;;4455953;32;20216;-57
2021/12/22 07:05:10;;;;;;;105.70;53.37;;;;;;;;;;4462662;32;20274;-58
2021/12/22 07:07:37;;;;;;;117.47;54.83;;;;;;;;;;4461079;32;20337;-56
2021/12/22 07:10:05;;;;;;;107.10;51.50;;;;;;;;;;4459976;32;20311;-55
2021/12/22 07:12:30;;;;;;;107.67;51.63;;;;;;;;;;4451633;32;20300;-56
2021/12/22 07:14:56;;;;;;;108.23;49.27;;;;;;;;;;4452965;32;20262;-55
2021/12/22 07:17:22;;;;;;;100.73;49.93;;;;;;;;;;4456454;32;20644;-57
2021/12/22 07:19:47;;;;;;;157.63;73.30;;;;;;;;;;4458357;32;20359;-56
2021/12/22 07:22:13;;;;;;;126.27;57.63;;;;;;;;;;4457439;32;20413;-56
2021/12/22 07:24:38;;;;;;;116.07;53.60;;;;;;;;;;4459643;32;20232;-55
2021/12/22 07:27:04;;;;;;;121.63;57.63;;;;;;;;;;4457249;32;20724;-56
2021/12/22 07:29:29;;;;;;;115.00;56.83;;;;;;;;;;4464951;32;20692;-59
2021/12/22 07:31:55;;;;;;;118.27;54.87;;;;;;;;;;4462518;32;20303;-58
2021/12/22 07:34:28;;;;;;;109.90;55.07;;;;;;;;;;4453845;32;20370;-58
2021/12/22 07:37:03;;;;;;;113.77;52.20;;;;;;;;;;4450863;32;20232;-58
2021/12/22 07:39:29;;;;;;;123.27;56.80;;;;;;;;;;4457088;32;20259;-57
2021/12/22 07:41:55;;;;;;;120.63;59.77;;;;;;;;;;4461881;32;20220;-57
2021/12/22 07:44:20;;;;;;;117.97;58.50;;;;;;;;;;4457343;32;20366;-58
2021/12/22 07:46:46;;;;;;;109.93;54.07;;;;;;;;;;4467587;32;20685;-57
2021/12/22 07:49:12;;;;;;;99.90;53.97;;;;;;;;;;4453293;32;20267;-58
2021/12/22 07:51:37;;;;;;;126.20;60.17;;;;;;;;;;4455278;32;20383;-56
2021/12/22 07:54:03;;;;;;;124.63;56.53;;;;;;;;;;4465466;32;20310;-57
2021/12/22 07:56:29;;;;;;;114.97;59.80;;;;;;;;;;4453550;32;20236;-57
2021/12/22 07:58:54;;;;;;;111.33;60.43;;;;;;;;;;4460781;32;20287;-58
2021/12/22 08:01:20;;;;;;;104.57;52.57;;;;;;;;;;4468197;32;20335;-57
2021/12/22 08:03:46;;;;;;;95.73;49.67;;;;;;;;;;4467638;32;20224;-57
2021/12/22 08:06:12;;;;;;;84.83;43.50;;;;;;;;;;4467909;32;20227;-57
2021/12/22 08:08:38;;;;;;;86.93;44.17;;;;;;;;;;4459185;32;20435;-57
2021/12/22 08:11:04;;;;;;;77.93;39.90;;;;;;;;;;4467651;32;20244;-57
2021/12/22 08:13:30;;;;;;;66.77;33.27;;;;;;;;;;4459806;32;20685;-57
2021/12/22 08:15:56;;;;;;;69.80;34.83;;;;;;;;;;4467622;32;20239;-58
2021/12/22 08:18:21;;;;;;;57.23;29.07;;;;;;;;;;4456035;32;20754;-57
2021/12/22 08:20:47;;;;;;;88.77;37.67;;;;;;;;;;4463288;32;20228;-58
2021/12/22 08:23:12;;;;;;;44.10;23.10;;;;;;;;;;4460238;32;20289;-56
2021/12/22 08:25:39;;;;;;;45.07;22.77;;;;;;;;;;4466456;32;20232;-57
2021/12/22 08:28:05;;;;;;;45.60;22.77;;;;;;;;;;4457367;32;20306;-56
2021/12/22 08:30:33;;;;;;;47.90;25.13;;;;;;;;;;4454793;32;20311;-56
2021/12/22 08:33:04;;;;;;;72.07;34.17;;;;;;;;;;4455759;32;20603;-56
2021/12/22 08:35:30;;;;;;;57.33;28.97;;;;;;;;;;4455563;32;20354;-57
2021/12/22 08:40:40;;;;;;;54.17;28.47;;;;;;;;;;4465227;32;20371;-56
2021/12/22 08:43:06;;;;;;;46.80;23.37;;;;;;;;;;4464412;32;20229;-57
2021/12/22 08:45:31;;;;;;;60.53;29.60;;;;;;;;;;4449122;32;20677;-58
2021/12/22 08:47:57;;;;;;;26.97;15.17;;;;;;;;;;4451913;32;20554;-56
2021/12/22 08:50:24;;;;;;;27.20;15.17;;;;;;;;;;4448264;32;20237;-56
2021/12/22 08:52:50;;;;;;;25.33;16.53;;;;;;;;;;4459403;32;20628;-58
2021/12/22 08:55:17;;;;;;;28.00;14.80;;;;;;;;;;4464471;32;20326;-56
2021/12/22 08:57:42;;;;;;;25.10;13.57;;;;;;;;;;4458414;32;20224;-56
2021/12/22 09:00:10;;;;;;;26.67;14.17;;;;;;;;;;4462921;32;20335;-56
2021/12/22 09:02:37;;;;;;;23.83;13.23;;;;;;;;;;4464345;32;20273;-58
2021/12/22 09:05:04;;;;;;;31.03;17.20;;;;;;;;;;4465049;32;20228;-56
2021/12/22 09:07:29;;;;;;;24.67;12.83;;;;;;;;;;4457290;32;20674;-55
2021/12/22 09:09:55;;;;;;;24.43;13.90;;;;;;;;;;4462986;32;20240;-56
2021/12/22 09:12:21;;;;;;;28.97;12.67;;;;;;;;;;4462948;32;20295;-56
2021/12/22 09:14:47;;;;;;;24.93;11.87;;;;;;;;;;4462575;32;20291;-55
2021/12/22 09:17:12;;;;;;;25.40;14.90;;;;;;;;;;4452636;32;20307;-59
2021/12/22 09:19:38;;;;;;;32.03;17.87;;;;;;;;;;4455276;32;20294;-55
2021/12/22 09:22:03;;;;;;;24.20;13.50;;;;;;;;;;4457972;32;20237;-56
2021/12/22 09:24:30;;;;;;;22.57;11.60;;;;;;;;;;4448137;32;20291;-56
2021/12/22 09:26:55;;;;;;;36.53;16.50;;;;;;;;;;4453383;32;20220;-54
2021/12/22 09:29:24;;;;;;;32.70;13.50;;;;;;;;;;4462999;32;20648;-56
2021/12/22 09:31:49;;;;;;;28.83;13.73;;;;;;;;;;4452297;32;20610;-56
2021/12/22 09:34:15;;;;;;;20.87;12.17;;;;;;;;;;4462098;32;20212;-55
2021/12/22 09:36:43;;;;;;;21.53;12.83;;;;;;;;;;4463987;32;20248;-54
2021/12/22 09:39:08;;;;;;;19.00;11.93;;;;;;;;;;4453193;32;20225;-55
2021/12/22 09:41:34;;;;;;;23.63;12.50;;;;;;;;;;4459725;32;20798;-56
2021/12/22 09:44:00;;;;;;;17.97;11.47;;;;;;;;;;4457845;32;20343;-56
2021/12/22 09:46:26;;;;;;;17.80;11.73;;;;;;;;;;4452311;32;20302;-54
2021/12/22 09:48:59;;;;;;;20.70;12.37;;;;;;;;;;4452986;32;20393;-55
2021/12/22 09:53:53;;;;;;;20.97;12.63;;;;;;;;;;4464256;32;20207;-54
2021/12/22 09:56:22;;;;;;;21.80;9.37;;;;;;;;;;4454842;32;20275;-55
2021/12/22 09:58:49;;;;;;;21.33;12.07;;;;;;;;;;4457221;32;20248;-55
2021/12/22 10:01:19;;;;;;;14.20;9.60;;;;;;;;;;4455813;32;20258;-55
2021/12/22 10:03:45;;;;;;;16.23;10.13;;;;;;;;;;4444211;32;20818;-56
2021/12/22 10:06:10;;;;;;;15.13;10.10;;;;;;;;;;4448004;32;20442;-55
2021/12/22 10:08:39;;;;;;;15.97;9.13;;;;;;;;;;4446612;32;20220;-55
2021/12/22 10:11:09;;;;;;;21.33;10.37;;;;;;;;;;4446351;32;20248;-55
2021/12/22 10:13:37;;;;;;;16.80;10.47;;;;;;;;;;4448772;32;20566;-56
2021/12/22 10:16:21;;;;;;;22.67;9.40;;;;;;;;;;4449948;32;20255;-56
2021/12/22 10:18:48;;;;;;;17.33;8.93;;;;;;;;;;4449653;32;20231;-55
2021/12/22 10:21:17;;;;;;;17.80;8.80;;;;;;;;;;4463793;32;20632;-55
2021/12/22 10:23:47;;;;;;;22.83;12.23;;;;;;;;;;4465418;32;20321;-55
2021/12/22 10:26:18;;;;;;;16.03;10.50;;;;;;;;;;4465105;32;20305;-55
2021/12/22 10:28:51;;;;;;;13.73;10.17;;;;;;;;;;4456526;32;20239;-56
2021/12/22 10:31:19;;;;;;;16.13;9.70;;;;;;;;;;4449729;32;20662;-56
2021/12/22 10:33:46;;;;;;;24.00;11.67;;;;;;;;;;4448823;32;20346;-55
2021/12/22 10:36:17;;;;;;;26.60;14.53;;;;;;;;;;4458580;32;20240;-56
2021/12/22 10:38:55;;;;;;;20.37;10.87;;;;;;;;;;4457287;32;20310;-55
2021/12/22 10:41:26;;;;;;;21.20;11.13;;;;;;;;;;4465132;32;20330;-55
2021/12/22 10:43:52;;;;;;;16.27;10.40;;;;;;;;;;4455480;32;20632;-55
2021/12/22 10:46:27;;;;;;;19.70;11.73;;;;;;;;;;4449410;32;20262;-55
2021/12/22 10:49:17;;;;;;;29.93;14.03;;;;;;;;;;4447289;32;20676;-55
2021/12/22 10:51:58;;;;;;;17.20;10.77;;;;;;;;;;4448153;32;20240;-55
2021/12/22 10:54:34;;;;;;;18.47;9.87;;;;;;;;;;4449234;32;20212;-55
2021/12/22 10:57:02;;;;;;;35.20;15.37;;;;;;;;;;4448490;32;20268;-55
2021/12/22 10:59:27;;;;;;;32.00;13.60;;;;;;;;;;4449156;32;20724;-56
2021/12/22 11:01:54;;;;;;;35.50;14.37;;;;;;;;;;4435004;32;20241;-55
2021/12/22 11:04:25;;;;;;;22.70;12.97;;;;;;;;;;4448884;32;20277;-56
2021/12/22 11:06:55;;;;;;;19.73;11.10;;;;;;;;;;4435090;32;20339;-56
2021/12/22 11:09:23;;;;;;;41.60;20.33;;;;;;;;;;4448142;32;20335;-55
2021/12/22 11:11:51;;;;;;;32.93;17.57;;;;;;;;;;4449258;32;20290;-55
2021/12/22 11:14:37;;;;;;;25.77;13.10;;;;;;;;;;4448553;32;20246;-56
2021/12/22 11:17:02;;;;;;;20.23;12.77;;;;;;;;;;4448559;32;20225;-56
2021/12/22 11:19:32;;;;;;;104.73;36.97;;;;;;;;;;4458400;32;20321;-55
2021/12/22 11:22:08;;;;;;;27.47;15.47;;;;;;;;;;4448736;32;20205;-55
2021/12/22 11:24:37;;;;;;;37.70;18.03;;;;;;;;;;4446935;32;20589;-56
2021/12/22 11:27:03;;;;;;;26.73;11.13;;;;;;;;;;4448345;32;20229;-55
2021/12/22 11:29:30;;;;;;;16.80;11.00;;;;;;;;;;4448130;32;20724;-55
2021/12/22 11:31:56;;;;;;;25.23;14.73;;;;;;;;;;4448090;32;20272;-56
2021/12/22 11:34:22;;;;;;;70.23;18.50;;;;;;;;;;4445263;32;20341;-56
2021/12/22 11:36:50;;;;;;;51.73;24.33;;;;;;;;;;4463157;32;20254;-55
2021/12/22 11:39:17;;;;;;;52.00;25.13;;;;;;;;;;4463152;32;20262;-55
2021/12/22 11:41:44;;;;;;;35.97;20.40;;;;;;;;;;4463814;32;20223;-56
2021/12/22 11:44:11;;;;;;;38.63;21.43;;;;;;;;;;4452567;32;20240;-57
2021/12/22 11:46:37;;;;;;;40.77;19.67;;;;;;;;;;4448218;32;20341;-56
2021/12/22 11:49:03;;;;;;;30.23;17.57;;;;;;;;;;4460894;32;20264;-56
2021/12/22 11:51:32;;;;;;;40.43;20.77;;;;;;;;;;4462587;32;20236;-56
2021/12/22 11:53:59;;;;;;;29.67;15.80;;;;;;;;;;4461534;32;20613;-55
2021/12/22 11:56:58;;;;;;;39.73;17.10;;;;;;;;;;4460399;32;20256;-56
2021/12/22 11:59:31;;;;;;;26.53;13.97;;;;;;;;;;4415232;32;20267;-56
2021/12/22 12:02:33;;;;;;;30.77;14.23;;;;;;;;;;4447171;32;20220;-57
2021/12/22 12:05:23;;;;;;;31.93;16.83;;;;;;;;;;4449696;32;20239;-56
2021/12/22 12:07:54;;;;;;;31.77;16.57;;;;;;;;;;4444591;32;20364;-57
2021/12/22 12:10:40;;;;;;;131.33;66.07;;;;;;;;;;4466292;32;20283;-57
2021/12/22 12:13:28;;;;;;;45.17;21.07;;;;;;;;;;4466953;32;20686;-56
2021/12/22 12:21:56;;;;;;;37.50;20.30;;;;;;;;;;4457704;32;20354;-57
2021/12/22 12:24:30;;;;;;;42.90;18.77;;;;;;;;;;4461320;32;20314;-57
2021/12/22 12:27:02;;;;;;;45.83;20.60;;;;;;;;;;4467050;32;20311;-58
2021/12/22 12:30:06;;;;;;;42.43;21.03;;;;;;;;;;4457153;32;20228;-56
2021/12/22 12:32:50;;;;;;;25.23;13.07;;;;;;;;;;4420378;32;20295;-56
2021/12/22 12:35:18;;;;;;;23.97;13.33;;;;;;;;;;4426566;32;20306;-57
2021/12/22 12:38:02;;;;;;;29.73;17.40;;;;;;;;;;4445734;32;20780;-57
2021/12/22 12:40:52;;;;;;;23.93;14.13;;;;;;;;;;4465943;32;20236;-56
2021/12/22 12:43:18;;;;;;;30.23;13.87;;;;;;;;;;4461126;32;20243;-55
2021/12/22 12:45:46;;;;;;;39.30;16.53;;;;;;;;;;4450774;32;20668;-56
2021/12/22 12:48:25;;;;;;;32.83;17.37;;;;;;;;;;4457998;32;20262;-56
2021/12/22 12:51:30;;;;;;;79.50;33.63;;;;;;;;;;4466485;32;20302;-57
2021/12/22 12:54:17;;;;;;;48.63;24.70;;;;;;;;;;4450890;32;20740;-58
2021/12/22 12:56:44;;;;;;;70.13;34.70;;;;;;;;;;4449672;32;20284;-57
2021/12/22 12:59:15;;;;;;;26.77;12.63;;;;;;;;;;4453340;32;20535;-57
2021/12/22 13:01:52;;;;;;;22.23;12.87;;;;;;;;;;4462773;32;20248;-56
2021/12/22 13:04:26;;;;;;;13.53;9.20;;;;;;;;;;4462343;32;20591;-56
2021/12/22 13:06:52;;;;;;;16.83;9.93;;;;;;;;;;4464980;32;20255;-57
2021/12/22 13:09:41;;;;;;;15.43;8.37;;;;;;;;;;4465573;32;20212;-57
2021/12/22 13:12:17;;;;;;;20.30;9.40;;;;;;;;;;4465811;32;20307;-56
2021/12/22 13:17:36;;;;;;;17.87;10.00;;;;;;;;;;4450388;32;20270;-56
2021/12/22 13:20:03;;;;;;;20.60;10.57;;;;;;;;;;4455907;32;20278;-56
2021/12/22 13:22:34;;;;;;;17.80;9.27;;;;;;;;;;4466122;32;20257;-56
2021/12/22 13:25:05;;;;;;;17.83;9.00;;;;;;;;;;4465680;32;20389;-55
2021/12/22 13:27:31;;;;;;;24.00;9.87;;;;;;;;;;4465624;32;20271;-57
2021/12/22 13:30:07;;;;;;;18.07;8.53;;;;;;;;;;4449676;32;20232;-56
2021/12/22 13:32:34;;;;;;;16.53;10.07;;;;;;;;;;4451924;32;20569;-57
2021/12/22 13:34:59;;;;;;;15.03;8.27;;;;;;;;;;4458957;32;20246;-56
2021/12/22 13:37:29;;;;;;;17.03;10.10;;;;;;;;;;4464376;32;20232;-55
2021/12/22 13:39:55;;;;;;;13.93;7.50;;;;;;;;;;4449390;32;20279;-57
2021/12/22 13:42:21;;;;;;;20.30;8.13;;;;;;;;;;4452468;32;20307;-56
2021/12/22 13:44:46;;;;;;;15.87;9.97;;;;;;;;;;4447983;32;20303;-56
2021/12/22 13:47:12;;;;;;;17.03;9.90;;;;;;;;;;4438813;32;20375;-56
2021/12/22 13:49:37;;;;;;;19.43;10.40;;;;;;;;;;4448163;32;20350;-58
2021/12/22 13:52:04;;;;;;;16.20;9.17;;;;;;;;;;4451985;32;20236;-57
2021/12/22 13:54:32;;;;;;;21.60;10.63;;;;;;;;;;4458196;32;20317;-57
2021/12/22 13:57:08;;;;;;;15.87;9.37;;;;;;;;;;4457471;32;20657;-56
2021/12/22 13:59:36;;;;;;;16.13;9.07;;;;;;;;;;4456400;32;20318;-56
2021/12/22 14:02:06;;;;;;;18.30;9.33;;;;;;;;;;4450948;32;20695;-56
2021/12/22 14:04:33;;;;;;;16.93;8.33;;;;;;;;;;4452110;32;20217;-57
2021/12/22 14:07:10;;;;;;;19.83;9.80;;;;;;;;;;4454276;32;20252;-57
2021/12/22 14:09:52;;;;;;;20.17;11.03;;;;;;;;;;4445577;32;20239;-56
2021/12/22 14:12:25;;;;;;;18.43;9.83;;;;;;;;;;4449883;32;20216;-56
2021/12/22 14:14:54;;;;;;;29.13;12.83;;;;;;;;;;4451623;32;20402;-56
2021/12/22 14:17:31;;;;;;;24.03;11.53;;;;;;;;;;4448343;32;20322;-56
2021/12/22 14:20:03;;;;;;;21.33;12.40;;;;;;;;;;4454442;32;20255;-56
2021/12/22 14:22:32;;;;;;;28.47;12.17;;;;;;;;;;4463798;32;20228;-56
2021/12/22 14:24:57;;;;;;;29.47;13.20;;;;;;;;;;4464362;32;20232;-56
2021/12/22 14:27:39;;;;;;;36.23;17.53;;;;;;;;;;4459951;32;20216;-56
2021/12/22 14:30:19;;;;;;;30.43;15.10;;;;;;;;;;4463158;32;20311;-56
2021/12/22 14:32:54;;;;;;;31.03;15.23;;;;;;;;;;4463202;32;20340;-56
2021/12/22 14:35:21;;;;;;;42.60;20.77;;;;;;;;;;4464589;32;20216;-56
2021/12/22 14:37:58;;;;;;;44.20;22.33;;;;;;;;;;4461295;32;20247;-55
2021/12/22 14:40:27;;;;;;;39.60;21.33;;;;;;;;;;4446131;32;20267;-57
2021/12/22 14:43:05;;;;;;;38.30;19.77;;;;;;;;;;4451840;32;20402;-56
2021/12/22 14:45:33;;;;;;;53.93;23.97;;;;;;;;;;4464593;32;20807;-56
2021/12/22 14:48:08;;;;;;;43.90;23.20;;;;;;;;;;4458651;32;20415;-56
2021/12/22 14:50:35;;;;;;;60.43;25.30;;;;;;;;;;4450346;32;20265;-56